createdAt,value
2019-01-28T00:00:35.273Z,81.96
2019-01-28T00:01:40.233Z,82.31
2019-01-28T00:02:43.689Z,82.44
2019-01-28T00:03:46.969Z,82.62
2019-01-28T00:04:50.251Z,82.80
2019-01-28T00:05:53.535Z,83.20
2019-01-28T00:06:56.846Z,83.66
2019-01-28T00:08:00.132Z,83.62
2019-01-28T00:09:04.667Z,83.69
2019-01-28T00:10:08.431Z,83.68
2019-01-28T00:11:11.714Z,83.63
2019-01-28T00:12:15.026Z,83.33
2019-01-28T00:13:18.385Z,82.93
2019-01-28T00:14:22.024Z,82.38
2019-01-28T00:15:25.383Z,82.01
2019-01-28T00:16:28.672Z,82.00
2019-01-28T00:17:32.064Z,82.06
2019-01-28T00:18:35.347Z,81.95
2019-01-28T00:19:38.633Z,82.26
2019-01-28T00:20:41.905Z,82.76
2019-01-28T00:21:45.257Z,82.75
2019-01-28T00:22:48.576Z,82.96
2019-01-28T00:23:51.965Z,83.21
2019-01-28T00:24:55.312Z,83.35
2019-01-28T00:25:58.601Z,83.35
2019-01-28T00:27:01.888Z,83.19
2019-01-28T00:28:05.202Z,83.37
2019-01-28T00:29:08.477Z,83.66
2019-01-28T00:30:11.904Z,83.94
2019-01-28T00:31:15.188Z,83.75
2019-01-28T00:32:18.472Z,83.53
2019-01-28T00:33:21.759Z,83.25
2019-01-28T00:34:25.046Z,82.88
2019-01-28T00:35:28.337Z,82.65
2019-01-28T00:36:31.685Z,82.47
2019-01-28T00:37:34.980Z,82.42
2019-01-28T00:38:38.305Z,82.70
2019-01-28T00:39:41.589Z,83.19
2019-01-28T00:40:44.879Z,83.35
2019-01-28T00:41:48.166Z,83.49
2019-01-28T00:42:51.479Z,83.64
2019-01-28T00:43:54.799Z,83.51
2019-01-28T00:44:58.084Z,83.27
2019-01-28T00:46:01.369Z,83.20
2019-01-28T00:47:04.950Z,83.18
2019-01-28T00:48:08.231Z,83.56
2019-01-28T00:49:11.539Z,83.73
2019-01-28T00:50:14.831Z,83.61
2019-01-28T00:51:18.102Z,82.99
2019-01-28T00:52:21.385Z,82.43
2019-01-28T00:53:24.672Z,82.01
2019-01-28T00:54:27.978Z,81.91
2019-01-28T00:55:31.410Z,81.95
2019-01-28T00:56:34.688Z,82.18
2019-01-28T00:57:38.041Z,82.23
2019-01-28T00:58:41.317Z,81.99
2019-01-28T00:59:44.706Z,81.70
2019-01-28T01:00:47.981Z,81.71
2019-01-28T01:01:51.944Z,82.17
2019-01-28T01:02:55.612Z,82.49
2019-01-28T01:03:58.891Z,82.53
2019-01-28T01:05:02.542Z,82.42
2019-01-28T01:06:05.823Z,82.72
2019-01-28T01:07:09.111Z,82.80
2019-01-28T01:08:12.397Z,82.66
2019-01-28T01:09:15.823Z,82.52
2019-01-28T01:10:19.136Z,82.21
2019-01-28T01:11:22.419Z,82.21
2019-01-28T01:12:25.706Z,82.52
2019-01-28T01:13:29.385Z,82.57
2019-01-28T01:14:32.666Z,82.59
2019-01-28T01:15:35.987Z,82.55
2019-01-28T01:16:39.259Z,82.67
2019-01-28T01:17:42.551Z,82.62
2019-01-28T01:18:45.833Z,82.61
2019-01-28T01:19:49.122Z,82.97
2019-01-28T01:20:52.865Z,83.30
2019-01-28T01:21:56.144Z,83.54
2019-01-28T01:22:59.427Z,83.82
2019-01-28T01:24:02.717Z,84.11
2019-01-28T01:25:06.921Z,84.25
2019-01-28T01:26:10.238Z,84.37
2019-01-28T01:27:13.585Z,84.18
2019-01-28T01:28:16.939Z,84.09
2019-01-28T01:29:20.226Z,83.91
2019-01-28T01:30:23.512Z,83.69
2019-01-28T01:31:27.187Z,83.34
2019-01-28T01:32:30.469Z,82.83
2019-01-28T01:33:34.132Z,82.62
2019-01-28T01:34:37.416Z,82.50
2019-01-28T01:35:40.709Z,82.34
2019-01-28T01:36:44.008Z,82.72
2019-01-28T01:37:47.676Z,83.45
2019-01-28T01:38:50.952Z,83.79
2019-01-28T01:39:54.253Z,84.20
2019-01-28T01:40:57.568Z,84.12
2019-01-28T01:42:00.892Z,84.10
2019-01-28T01:43:04.173Z,84.38
2019-01-28T01:44:07.523Z,84.38
2019-01-28T01:45:13.311Z,84.26
2019-01-28T01:46:16.666Z,84.19
2019-01-28T01:47:20.056Z,83.97
2019-01-28T01:48:23.346Z,83.79
2019-01-28T01:49:26.621Z,83.81
2019-01-28T01:50:30.026Z,83.58
2019-01-28T01:51:33.312Z,83.28
2019-01-28T01:52:36.633Z,83.00
2019-01-28T01:53:39.919Z,82.76
2019-01-28T01:54:43.218Z,82.86
2019-01-28T01:55:46.544Z,83.13
2019-01-28T01:56:49.820Z,83.34
2019-01-28T01:57:53.112Z,83.47
2019-01-28T01:58:56.395Z,83.66
2019-01-28T01:59:59.672Z,83.67
2019-01-28T02:01:03.028Z,83.85
2019-01-28T02:02:06.315Z,84.46
2019-01-28T02:03:10.061Z,84.68
2019-01-28T02:04:13.797Z,84.56
2019-01-28T02:05:17.079Z,84.77
2019-01-28T02:06:20.362Z,85.04
2019-01-28T02:07:23.648Z,85.14
2019-01-28T02:08:27.021Z,85.05
2019-01-28T02:09:30.296Z,84.92
2019-01-28T02:10:33.581Z,84.71
2019-01-28T02:11:37.026Z,84.44
2019-01-28T02:12:40.300Z,83.96
2019-01-28T02:13:43.623Z,83.77
2019-01-28T02:14:46.908Z,83.92
2019-01-28T02:15:50.206Z,83.94
2019-01-28T02:16:53.489Z,83.90
2019-01-28T02:17:56.776Z,83.95
2019-01-28T02:19:00.093Z,84.24
2019-01-28T02:20:04.421Z,84.05
2019-01-28T02:21:07.695Z,83.90
2019-01-28T02:22:10.983Z,83.81
2019-01-28T02:23:14.265Z,83.66
2019-01-28T02:24:17.647Z,83.59
2019-01-28T02:25:20.923Z,83.72
2019-01-28T02:26:24.208Z,83.66
2019-01-28T02:27:27.569Z,83.73
2019-01-28T02:28:30.845Z,83.90
2019-01-28T02:29:34.237Z,84.07
2019-01-28T02:30:37.525Z,84.15
2019-01-28T02:31:40.808Z,83.79
2019-01-28T02:32:44.156Z,83.54
2019-01-28T02:33:47.440Z,83.41
2019-01-28T02:34:50.765Z,83.31
2019-01-28T02:35:54.050Z,83.28
2019-01-28T02:36:57.330Z,83.42
2019-01-28T02:38:00.630Z,83.52
2019-01-28T02:39:05.432Z,83.92
2019-01-28T02:40:14.471Z,84.45
2019-01-28T02:41:17.837Z,84.32
2019-01-28T02:42:21.122Z,84.22
2019-01-28T02:43:24.406Z,84.55
2019-01-28T02:44:27.686Z,84.50
2019-01-28T02:45:31.076Z,84.40
2019-01-28T02:46:34.361Z,84.30
2019-01-28T02:47:37.644Z,84.08
2019-01-28T02:48:41.031Z,83.98
2019-01-28T02:49:45.106Z,84.11
2019-01-28T02:50:48.427Z,84.03
2019-01-28T02:51:51.733Z,84.22
2019-01-28T02:52:55.024Z,84.14
2019-01-28T02:53:58.633Z,84.15
2019-01-28T02:55:02.218Z,83.97
2019-01-28T02:56:05.527Z,84.21
2019-01-28T02:57:08.835Z,84.31
2019-01-28T02:58:12.109Z,84.57
2019-01-28T02:59:15.391Z,84.94
2019-01-28T03:00:22.659Z,84.97
2019-01-28T03:01:25.999Z,84.95
2019-01-28T03:02:29.281Z,84.61
2019-01-28T03:03:32.565Z,84.67
2019-01-28T03:04:35.920Z,84.43
2019-01-28T03:05:39.209Z,84.21
2019-01-28T03:06:42.532Z,84.36
2019-01-28T03:07:45.831Z,84.72
2019-01-28T03:08:49.155Z,84.63
2019-01-28T03:09:52.800Z,84.38
2019-01-28T03:10:56.162Z,84.13
2019-01-28T03:11:59.962Z,83.87
2019-01-28T03:13:03.243Z,83.75
2019-01-28T03:14:06.533Z,83.80
2019-01-28T03:15:10.496Z,84.01
2019-01-28T03:16:13.763Z,83.87
2019-01-28T03:17:17.079Z,83.98
2019-01-28T03:18:20.356Z,84.24
2019-01-28T03:19:23.663Z,84.10
2019-01-28T03:20:26.963Z,83.94
2019-01-28T03:21:30.246Z,84.33
2019-01-28T03:22:33.559Z,84.80
2019-01-28T03:23:36.908Z,84.62
2019-01-28T03:24:40.194Z,84.21
2019-01-28T03:25:43.477Z,83.85
2019-01-28T03:26:46.766Z,83.97
2019-01-28T03:27:50.074Z,84.12
2019-01-28T03:28:53.356Z,84.04
2019-01-28T03:29:56.639Z,83.91
2019-01-28T03:30:59.927Z,83.71
2019-01-28T03:32:03.213Z,83.64
2019-01-28T03:33:06.533Z,83.46
2019-01-28T03:34:09.809Z,83.49
2019-01-28T03:35:13.133Z,83.84
2019-01-28T03:36:16.416Z,83.86
2019-01-28T03:37:19.693Z,84.07
2019-01-28T03:38:23.402Z,84.40
2019-01-28T03:39:26.682Z,84.58
2019-01-28T03:40:30.284Z,84.67
2019-01-28T03:41:33.569Z,84.79
2019-01-28T03:42:36.847Z,84.77
2019-01-28T03:43:40.170Z,84.94
2019-01-28T03:44:43.451Z,84.87
2019-01-28T03:45:46.731Z,84.83
2019-01-28T03:46:50.153Z,84.88
2019-01-28T03:47:53.424Z,84.93
2019-01-28T03:48:56.741Z,84.94
2019-01-28T03:50:00.024Z,85.00
2019-01-28T03:51:03.310Z,84.83
2019-01-28T03:52:07.963Z,84.70
2019-01-28T03:53:12.607Z,84.75
2019-01-28T03:54:15.924Z,84.77
2019-01-28T03:55:19.455Z,84.76
2019-01-28T03:56:22.732Z,84.47
2019-01-28T03:57:26.015Z,84.39
2019-01-28T03:58:29.436Z,84.43
2019-01-28T03:59:32.849Z,84.37
2019-01-28T04:00:36.135Z,84.34
2019-01-28T04:01:39.754Z,84.30
2019-01-28T04:02:43.035Z,84.25
2019-01-28T04:03:46.317Z,84.26
2019-01-28T04:04:49.628Z,84.60
2019-01-28T04:05:52.922Z,84.66
2019-01-28T04:06:56.202Z,84.31
2019-01-28T04:07:59.496Z,84.23
2019-01-28T04:09:04.423Z,84.16
2019-01-28T04:10:11.074Z,84.26
2019-01-28T04:11:14.717Z,84.59
2019-01-28T04:12:18.018Z,84.64
2019-01-28T04:13:21.283Z,84.75
2019-01-28T04:14:24.569Z,84.76
2019-01-28T04:15:27.893Z,84.92
2019-01-28T04:16:31.551Z,84.99
2019-01-28T04:17:34.836Z,84.96
2019-01-28T04:18:38.123Z,85.16
2019-01-28T04:19:41.747Z,85.27
2019-01-28T04:20:45.062Z,85.27
2019-01-28T04:21:48.349Z,85.60
2019-01-28T04:22:51.630Z,85.60
2019-01-28T04:23:55.289Z,85.59
2019-01-28T04:24:58.716Z,85.76
2019-01-28T04:26:02.024Z,85.65
2019-01-28T04:27:05.304Z,85.33
2019-01-28T04:28:08.586Z,85.16
2019-01-28T04:29:11.868Z,85.12
2019-01-28T04:30:20.122Z,84.88
2019-01-28T04:31:23.426Z,84.52
2019-01-28T04:32:26.715Z,84.11
2019-01-28T04:33:29.993Z,83.95
2019-01-28T04:34:33.346Z,84.88
2019-01-28T04:35:36.629Z,86.14
2019-01-28T04:36:40.010Z,87.01
2019-01-28T04:37:43.403Z,87.25
2019-01-28T04:38:46.702Z,87.10
2019-01-28T04:39:50.377Z,87.89
2019-01-28T04:40:53.660Z,88.05
2019-01-28T04:41:57.119Z,87.22
2019-01-28T04:43:00.719Z,86.25
2019-01-28T04:44:04.009Z,85.73
2019-01-28T04:45:10.690Z,85.61
2019-01-28T04:46:14.011Z,86.31
2019-01-28T04:47:17.333Z,85.95
2019-01-28T04:48:20.604Z,85.10
2019-01-28T04:49:23.888Z,84.50
2019-01-28T04:50:27.170Z,83.98
2019-01-28T04:51:30.820Z,83.85
2019-01-28T04:52:34.197Z,83.64
2019-01-28T04:53:37.567Z,83.66
2019-01-28T04:54:40.891Z,83.97
2019-01-28T04:55:44.174Z,84.32
2019-01-28T04:56:47.483Z,84.58
2019-01-28T04:57:50.770Z,84.96
2019-01-28T04:58:54.351Z,84.94
2019-01-28T04:59:57.871Z,84.84
2019-01-28T05:01:01.178Z,84.82
2019-01-28T05:02:04.458Z,84.85
2019-01-28T05:03:07.745Z,84.97
2019-01-28T05:04:11.029Z,85.14
2019-01-28T05:05:14.715Z,84.96
2019-01-28T05:06:18.077Z,84.70
2019-01-28T05:07:21.427Z,84.91
2019-01-28T05:08:24.707Z,85.10
2019-01-28T05:09:27.999Z,84.88
2019-01-28T05:10:31.316Z,84.70
2019-01-28T05:11:34.666Z,84.63
2019-01-28T05:12:37.973Z,84.65
2019-01-28T05:13:41.267Z,84.67
2019-01-28T05:14:44.847Z,85.00
2019-01-28T05:15:48.200Z,85.29
2019-01-28T05:16:51.489Z,85.30
2019-01-28T05:17:54.776Z,85.05
2019-01-28T05:18:58.064Z,84.94
2019-01-28T05:20:01.420Z,84.84
2019-01-28T05:21:04.772Z,84.92
2019-01-28T05:22:08.119Z,84.92
2019-01-28T05:23:11.423Z,84.84
2019-01-28T05:24:14.706Z,84.75
2019-01-28T05:25:18.239Z,84.75
2019-01-28T05:26:21.920Z,85.05
2019-01-28T05:27:25.206Z,85.59
2019-01-28T05:28:28.525Z,86.12
2019-01-28T05:29:31.874Z,86.39
2019-01-28T05:30:35.381Z,86.13
2019-01-28T05:31:38.738Z,85.95
2019-01-28T05:32:42.443Z,85.79
2019-01-28T05:33:45.862Z,85.69
2019-01-28T05:34:49.138Z,85.44
2019-01-28T05:35:52.458Z,85.29
2019-01-28T05:36:55.734Z,85.25
2019-01-28T05:37:59.101Z,85.06
2019-01-28T05:39:02.486Z,85.06
2019-01-28T05:40:14.694Z,84.96
2019-01-28T05:41:18.048Z,84.93
2019-01-28T05:42:21.346Z,84.70
2019-01-28T05:43:24.670Z,84.55
2019-01-28T05:44:27.998Z,84.46
2019-01-28T05:45:31.281Z,84.44
2019-01-28T05:46:34.565Z,84.33
2019-01-28T05:47:37.859Z,84.86
2019-01-28T05:48:41.217Z,84.91
2019-01-28T05:49:44.547Z,85.18
2019-01-28T05:50:47.906Z,85.36
2019-01-28T05:51:51.193Z,85.33
2019-01-28T05:52:54.496Z,85.55
2019-01-28T05:53:58.184Z,85.47
2019-01-28T05:55:01.503Z,85.39
2019-01-28T05:56:04.792Z,85.20
2019-01-28T05:57:08.781Z,85.01
2019-01-28T05:58:12.149Z,84.85
2019-01-28T05:59:15.445Z,85.00
2019-01-28T06:00:21.263Z,85.23
2019-01-28T06:01:24.911Z,84.96
2019-01-28T06:02:28.189Z,85.15
2019-01-28T06:03:31.470Z,85.38
2019-01-28T06:04:34.758Z,85.33
2019-01-28T06:05:38.090Z,85.34
2019-01-28T06:06:41.375Z,85.61
2019-01-28T06:07:44.737Z,85.62
2019-01-28T06:08:48.021Z,85.48
2019-01-28T06:09:51.314Z,85.33
2019-01-28T06:10:54.641Z,85.21
2019-01-28T06:11:57.922Z,85.04
2019-01-28T06:13:01.282Z,84.96
2019-01-28T06:14:05.003Z,85.15
2019-01-28T06:15:11.607Z,85.46
2019-01-28T06:16:15.030Z,85.63
2019-01-28T06:17:18.316Z,85.66
2019-01-28T06:18:21.601Z,85.53
2019-01-28T06:19:24.885Z,85.69
2019-01-28T06:20:28.488Z,85.84
2019-01-28T06:21:31.816Z,85.83
2019-01-28T06:22:35.102Z,85.65
2019-01-28T06:23:38.748Z,85.79
2019-01-28T06:24:42.115Z,86.07
2019-01-28T06:25:45.415Z,86.07
2019-01-28T06:26:48.742Z,86.11
2019-01-28T06:27:52.027Z,85.94
2019-01-28T06:28:55.335Z,85.80
2019-01-28T06:29:58.635Z,85.79
2019-01-28T06:31:01.923Z,85.53
2019-01-28T06:32:05.222Z,85.45
2019-01-28T06:33:08.521Z,85.53
2019-01-28T06:34:11.809Z,85.49
2019-01-28T06:35:15.119Z,85.45
2019-01-28T06:36:18.845Z,85.41
2019-01-28T06:37:22.165Z,85.46
2019-01-28T06:38:25.539Z,85.48
2019-01-28T06:39:28.833Z,85.44
2019-01-28T06:40:33.870Z,85.35
2019-01-28T06:41:37.230Z,85.16
2019-01-28T06:42:40.708Z,85.30
2019-01-28T06:43:44.040Z,85.31
2019-01-28T06:44:47.296Z,85.20
2019-01-28T06:45:50.586Z,85.18
2019-01-28T06:46:53.879Z,84.99
2019-01-28T06:47:57.202Z,84.77
2019-01-28T06:49:00.495Z,84.74
2019-01-28T06:50:06.138Z,84.75
2019-01-28T06:51:10.438Z,84.74
2019-01-28T06:52:13.794Z,84.61
2019-01-28T06:53:17.147Z,84.46
2019-01-28T06:54:20.506Z,84.47
2019-01-28T06:55:23.807Z,84.41
2019-01-28T06:56:27.407Z,84.27
2019-01-28T06:57:30.757Z,84.26
2019-01-28T06:58:34.380Z,84.31
2019-01-28T06:59:37.672Z,84.21
2019-01-28T07:00:41.034Z,84.14
2019-01-28T07:01:44.388Z,84.03
2019-01-28T07:02:47.751Z,84.07
2019-01-28T07:03:51.083Z,84.12
2019-01-28T07:04:54.369Z,84.15
2019-01-28T07:05:57.976Z,84.05
2019-01-28T07:07:01.270Z,84.04
2019-01-28T07:08:04.566Z,84.00
2019-01-28T07:09:09.134Z,84.31
2019-01-28T07:10:12.589Z,84.31
2019-01-28T07:11:15.896Z,84.55
2019-01-28T07:12:19.257Z,84.41
2019-01-28T07:13:22.642Z,84.02
2019-01-28T07:14:25.975Z,83.85
2019-01-28T07:15:29.278Z,83.73
2019-01-28T07:16:33.503Z,83.52
2019-01-28T07:17:36.841Z,83.23
2019-01-28T07:18:40.147Z,82.95
2019-01-28T07:19:43.474Z,82.65
2019-01-28T07:20:46.840Z,82.59
2019-01-28T07:21:50.208Z,82.75
2019-01-28T07:22:53.580Z,82.79
2019-01-28T07:23:57.020Z,82.50
2019-01-28T07:25:00.360Z,82.56
2019-01-28T07:26:04.053Z,82.55
2019-01-28T07:27:07.492Z,82.36
2019-01-28T07:28:10.788Z,82.33
2019-01-28T07:29:14.518Z,82.65
2019-01-28T07:30:24.471Z,82.18
2019-01-28T07:31:27.766Z,81.63
2019-01-28T07:32:31.064Z,81.38
2019-01-28T07:33:34.356Z,81.30
2019-01-28T07:34:37.798Z,81.27
2019-01-28T07:35:41.272Z,81.39
2019-01-28T07:36:44.617Z,81.38
2019-01-28T07:37:47.923Z,81.54
2019-01-28T07:38:51.289Z,81.70
2019-01-28T07:39:54.593Z,81.59
2019-01-28T07:40:57.939Z,81.58
2019-01-28T07:42:01.211Z,81.56
2019-01-28T07:43:04.587Z,81.75
2019-01-28T07:44:07.863Z,81.75
2019-01-28T07:45:20.648Z,81.28
2019-01-28T07:46:23.975Z,81.15
2019-01-28T07:47:27.340Z,81.14
2019-01-28T07:48:30.707Z,81.17
2019-01-28T07:49:33.999Z,80.96
2019-01-28T07:50:37.300Z,80.54
2019-01-28T07:51:40.706Z,80.57
2019-01-28T07:52:43.995Z,80.15
2019-01-28T07:53:47.384Z,79.98
2019-01-28T07:54:50.672Z,79.73
2019-01-28T07:55:53.979Z,79.17
2019-01-28T07:56:57.304Z,79.16
2019-01-28T07:58:00.603Z,78.76
2019-01-28T07:59:03.969Z,77.84
2019-01-28T08:00:25.216Z,77.22
2019-01-28T08:01:28.573Z,76.99
2019-01-28T08:02:31.964Z,76.74
2019-01-28T08:03:35.251Z,76.31
2019-01-28T08:04:38.533Z,76.36
2019-01-28T08:05:42.248Z,76.03
2019-01-28T08:06:45.566Z,75.55
2019-01-28T08:07:48.864Z,75.61
2019-01-28T08:08:52.220Z,75.51
2019-01-28T08:09:55.521Z,75.36
2019-01-28T08:10:58.797Z,75.32
2019-01-28T08:12:02.089Z,75.54
2019-01-28T08:13:06.087Z,75.14
2019-01-28T08:14:09.366Z,74.94
2019-01-28T08:15:27.241Z,74.85
2019-01-28T08:16:30.526Z,74.79
2019-01-28T08:17:34.258Z,74.16
2019-01-28T08:18:37.560Z,73.61
2019-01-28T08:19:40.839Z,73.71
2019-01-28T08:20:44.240Z,73.59
2019-01-28T08:21:47.524Z,73.23
2019-01-28T08:22:50.873Z,73.13
2019-01-28T08:23:54.546Z,72.89
2019-01-28T08:24:57.830Z,73.03
2019-01-28T08:26:01.158Z,72.83
2019-01-28T08:27:04.541Z,72.16
2019-01-28T08:28:07.835Z,71.69
2019-01-28T08:29:11.111Z,71.34
2019-01-28T08:30:17.805Z,71.27
2019-01-28T08:31:21.137Z,70.81
2019-01-28T08:32:24.422Z,69.95
2019-01-28T08:33:27.716Z,69.79
2019-01-28T08:34:31.083Z,68.90
2019-01-28T08:35:34.826Z,67.46
2019-01-28T08:36:38.141Z,66.50
2019-01-28T08:37:41.498Z,66.20
2019-01-28T08:38:44.835Z,66.29
2019-01-28T08:39:48.123Z,66.26
2019-01-28T08:40:51.405Z,66.40
2019-01-28T08:41:54.769Z,66.28
2019-01-28T08:42:58.330Z,66.17
2019-01-28T08:44:01.691Z,66.27
2019-01-28T08:45:10.608Z,65.92
2019-01-28T08:46:13.889Z,66.80
2019-01-28T08:47:17.278Z,66.93
2019-01-28T08:48:20.627Z,66.33
2019-01-28T08:49:23.902Z,66.67
2019-01-28T08:50:28.935Z,66.53
2019-01-28T08:51:32.292Z,66.55
2019-01-28T08:52:35.618Z,66.87
2019-01-28T08:53:38.915Z,66.48
2019-01-28T08:54:42.567Z,66.32
2019-01-28T08:55:45.849Z,66.20
2019-01-28T08:56:49.130Z,66.14
2019-01-28T08:57:52.536Z,65.89
2019-01-28T08:58:56.026Z,65.64
2019-01-28T08:59:59.342Z,65.42
2019-01-28T09:01:02.687Z,65.00
2019-01-28T09:02:06.255Z,64.45
2019-01-28T09:03:09.578Z,64.37
2019-01-28T09:04:12.857Z,63.76
2019-01-28T09:05:17.288Z,63.61
2019-01-28T09:06:20.578Z,63.49
2019-01-28T09:07:23.858Z,63.27
2019-01-28T09:08:27.184Z,63.70
2019-01-28T09:09:30.479Z,63.00
2019-01-28T09:10:33.837Z,62.97
2019-01-28T09:11:37.246Z,62.80
2019-01-28T09:12:42.119Z,62.89
2019-01-28T09:13:45.443Z,62.69
2019-01-28T09:14:48.857Z,62.37
2019-01-28T09:15:52.211Z,62.45
2019-01-28T09:16:55.633Z,62.69
2019-01-28T09:17:58.988Z,62.23
2019-01-28T09:19:02.261Z,61.44
2019-01-28T09:20:08.818Z,61.74
2019-01-28T09:21:12.183Z,61.71
2019-01-28T09:22:15.468Z,60.67
2019-01-28T09:23:18.810Z,61.12
2019-01-28T09:24:22.137Z,61.06
2019-01-28T09:25:25.500Z,61.49
2019-01-28T09:26:28.774Z,61.08
2019-01-28T09:27:32.061Z,60.79
2019-01-28T09:28:35.439Z,61.21
2019-01-28T09:29:38.845Z,61.78
2019-01-28T09:30:42.121Z,62.11
2019-01-28T09:31:45.509Z,62.11
2019-01-28T09:32:48.791Z,61.60
2019-01-28T09:33:52.073Z,60.93
2019-01-28T09:34:55.519Z,61.43
2019-01-28T09:35:58.861Z,62.04
2019-01-28T09:37:02.577Z,62.18
2019-01-28T09:38:05.868Z,62.26
2019-01-28T09:39:09.158Z,61.26
2019-01-28T09:40:15.521Z,59.86
2019-01-28T09:41:18.803Z,59.86
2019-01-28T09:42:22.168Z,59.55
2019-01-28T09:43:26.577Z,59.55
2019-01-28T09:44:30.048Z,59.19
2019-01-28T09:45:36.071Z,58.06
2019-01-28T09:46:39.362Z,56.49
2019-01-28T09:47:42.663Z,56.47
2019-01-28T09:48:47.382Z,55.85
2019-01-28T09:49:50.615Z,55.85
2019-01-28T09:50:54.015Z,54.67
2019-01-28T09:51:57.302Z,53.97
2019-01-28T09:53:00.673Z,53.97
2019-01-28T09:54:04.043Z,53.42
2019-01-28T09:55:10.766Z,53.42
2019-01-28T09:56:14.659Z,53.26
2019-01-28T09:57:17.969Z,52.95
2019-01-28T09:58:21.333Z,53.72
2019-01-28T09:59:24.682Z,52.30
2019-01-28T10:00:33.786Z,51.62
2019-01-28T10:01:37.178Z,51.23
2019-01-28T10:02:40.452Z,51.47
2019-01-28T10:03:43.803Z,50.73
2019-01-28T10:04:47.091Z,49.25
2019-01-28T10:05:50.506Z,50.21
2019-01-28T10:06:53.900Z,50.28
2019-01-28T10:07:57.249Z,49.58
2019-01-28T10:09:00.526Z,49.50
2019-01-28T10:10:05.708Z,50.28
2019-01-28T10:11:09.183Z,49.51
2019-01-28T10:12:12.538Z,48.97
2019-01-28T10:13:17.110Z,49.15
2019-01-28T10:14:20.434Z,49.32
2019-01-28T10:15:28.789Z,48.50
2019-01-28T10:16:30.278Z,49.27
2019-01-28T10:17:33.578Z,48.83
2019-01-28T10:18:41.862Z,49.95
2019-01-28T10:19:43.879Z,49.65
2019-01-28T10:20:47.703Z,48.47
2019-01-28T10:21:50.992Z,49.21
2019-01-28T10:22:54.321Z,48.45
2019-01-28T10:23:57.596Z,49.15
2019-01-28T10:25:01.788Z,48.20
2019-01-28T10:26:05.548Z,48.29
2019-01-28T10:27:08.846Z,48.61
2019-01-28T10:28:12.180Z,49.25
2019-01-28T10:29:15.536Z,49.78
2019-01-28T10:30:27.100Z,48.61
2019-01-28T10:31:30.385Z,49.07
2019-01-28T10:32:36.237Z,48.49
2019-01-28T10:33:38.723Z,49.35
2019-01-28T10:34:42.010Z,48.94
2019-01-28T10:35:45.300Z,48.13
2019-01-28T10:36:48.590Z,49.38
2019-01-28T10:37:51.877Z,48.26
2019-01-28T10:38:55.256Z,47.33
2019-01-28T10:39:58.561Z,48.00
2019-01-28T10:41:01.845Z,47.09
2019-01-28T10:42:09.723Z,46.42
2019-01-28T10:43:10.271Z,47.39
2019-01-28T10:44:13.570Z,46.40
2019-01-28T10:45:17.234Z,47.06
2019-01-28T10:46:20.511Z,45.71
2019-01-28T10:47:23.903Z,46.82
2019-01-28T10:48:27.209Z,46.38
2019-01-28T10:49:30.568Z,46.02
2019-01-28T10:50:33.963Z,44.85
2019-01-28T10:51:37.626Z,45.10
2019-01-28T10:52:40.928Z,44.90
2019-01-28T10:53:44.216Z,43.58
2019-01-28T10:54:47.621Z,44.21
2019-01-28T10:55:50.971Z,43.38
2019-01-28T10:56:54.252Z,43.06
2019-01-28T10:57:57.771Z,44.05
2019-01-28T10:59:01.044Z,43.89
2019-01-28T11:00:11.542Z,44.34
2019-01-28T11:01:12.637Z,43.83
2019-01-28T11:02:15.924Z,43.65
2019-01-28T11:03:19.552Z,43.42
2019-01-28T11:04:22.847Z,43.25
2019-01-28T11:05:26.165Z,43.94
2019-01-28T11:06:29.449Z,45.04
2019-01-28T11:07:32.736Z,45.13
2019-01-28T11:08:36.017Z,46.48
2019-01-28T11:09:39.413Z,45.56
2019-01-28T11:10:42.762Z,45.66
2019-01-28T11:11:46.103Z,46.32
2019-01-28T11:12:49.462Z,44.72
2019-01-28T11:13:52.880Z,45.83
2019-01-28T11:14:56.264Z,45.93
2019-01-28T11:15:59.654Z,45.94
2019-01-28T11:17:03.018Z,45.49
2019-01-28T11:18:09.656Z,44.51
2019-01-28T11:19:13.037Z,44.88
2019-01-28T11:20:17.222Z,45.09
2019-01-28T11:21:20.551Z,45.16
2019-01-28T11:22:23.948Z,46.75
2019-01-28T11:23:27.264Z,46.92
2019-01-28T11:24:30.639Z,46.75
2019-01-28T11:25:33.959Z,46.21
2019-01-28T11:26:37.269Z,46.21
2019-01-28T11:27:40.654Z,45.87
2019-01-28T11:28:44.858Z,46.36
2019-01-28T11:29:48.360Z,44.80
2019-01-28T11:30:55.465Z,44.49
2019-01-28T11:31:59.243Z,44.83
2019-01-28T11:33:02.526Z,44.39
2019-01-28T11:34:05.813Z,44.42
2019-01-28T11:35:09.206Z,44.09
2019-01-28T11:36:12.628Z,44.14
2019-01-28T11:37:16.401Z,42.56
2019-01-28T11:38:20.668Z,42.27
2019-01-28T11:39:24.102Z,41.78
2019-01-28T11:40:27.359Z,42.89
2019-01-28T11:41:30.821Z,43.55
2019-01-28T11:42:34.376Z,42.33
2019-01-28T11:43:37.809Z,41.38
2019-01-28T11:44:41.058Z,41.50
2019-01-28T11:45:59.621Z,43.32
2019-01-28T11:47:03.060Z,43.01
2019-01-28T11:48:06.920Z,43.16
2019-01-28T11:49:10.299Z,43.77
2019-01-28T11:50:15.979Z,43.34
2019-01-28T11:51:19.305Z,43.59
2019-01-28T11:52:22.724Z,42.79
2019-01-28T11:53:28.306Z,42.75
2019-01-28T11:54:31.591Z,42.74
2019-01-28T11:55:34.928Z,43.26
2019-01-28T11:56:38.238Z,41.80
2019-01-28T11:57:41.931Z,41.27
2019-01-28T11:58:45.358Z,41.60
2019-01-28T11:59:48.636Z,42.11
2019-01-28T12:00:59.229Z,42.43
2019-01-28T12:02:02.569Z,43.02
2019-01-28T12:03:05.827Z,41.98
2019-01-28T12:04:09.183Z,42.37
2019-01-28T12:05:12.473Z,43.12
2019-01-28T12:06:15.843Z,43.25
2019-01-28T12:07:19.162Z,43.86
2019-01-28T12:08:22.859Z,43.71
2019-01-28T12:09:26.443Z,44.65
2019-01-28T12:10:29.791Z,44.16
2019-01-28T12:11:33.079Z,44.85
2019-01-28T12:12:36.397Z,44.91
2019-01-28T12:13:39.703Z,44.90
2019-01-28T12:14:42.966Z,45.37
2019-01-28T12:15:46.251Z,45.65
2019-01-28T12:16:49.836Z,46.65
2019-01-28T12:17:53.152Z,46.65
2019-01-28T12:18:56.503Z,46.90
2019-01-28T12:19:59.889Z,46.60
2019-01-28T12:21:03.209Z,46.81
2019-01-28T12:22:06.904Z,47.09
2019-01-28T12:23:10.231Z,47.26
2019-01-28T12:24:13.674Z,47.26
2019-01-28T12:25:17.436Z,47.60
2019-01-28T12:26:20.737Z,47.81
2019-01-28T12:27:24.013Z,48.45
2019-01-28T12:28:27.328Z,47.83
2019-01-28T12:29:30.981Z,47.61
2019-01-28T12:30:34.279Z,47.39
2019-01-28T12:31:37.560Z,46.94
2019-01-28T12:32:41.178Z,48.82
2019-01-28T12:33:44.507Z,48.43
2019-01-28T12:34:47.780Z,49.43
2019-01-28T12:35:51.074Z,49.78
2019-01-28T12:36:54.351Z,50.13
2019-01-28T12:37:58.004Z,50.34
2019-01-28T12:39:01.335Z,50.57
2019-01-28T12:40:07.860Z,50.77
2019-01-28T12:41:17.332Z,51.39
2019-01-28T12:42:16.185Z,51.68
2019-01-28T12:43:19.621Z,52.29
2019-01-28T12:44:22.944Z,52.79
2019-01-28T12:45:27.973Z,53.26
2019-01-28T12:46:31.252Z,53.89
2019-01-28T12:47:34.546Z,53.89
2019-01-28T12:48:37.828Z,54.69
2019-01-28T12:49:41.138Z,55.34
2019-01-28T12:50:44.421Z,54.58
2019-01-28T12:51:47.792Z,54.58
2019-01-28T12:52:51.055Z,54.19
2019-01-28T12:53:54.335Z,54.64
2019-01-28T12:54:57.650Z,54.64
2019-01-28T12:56:00.934Z,54.76
2019-01-28T12:57:04.220Z,55.16
2019-01-28T12:58:07.510Z,55.16
2019-01-28T12:59:10.784Z,55.41
2019-01-28T13:00:23.611Z,55.41
2019-01-28T13:01:27.011Z,56.00
2019-01-28T13:02:30.313Z,55.82
2019-01-28T13:03:33.609Z,55.91
2019-01-28T13:04:42.083Z,55.91
2019-01-28T13:05:42.699Z,55.91
2019-01-28T13:06:45.990Z,55.94
2019-01-28T13:07:49.346Z,55.94
2019-01-28T13:08:52.619Z,56.78
2019-01-28T13:09:55.909Z,57.11
2019-01-28T13:10:59.232Z,57.11
2019-01-28T13:12:02.527Z,56.66
2019-01-28T13:13:05.873Z,56.57
2019-01-28T13:14:10.203Z,56.55
2019-01-28T13:15:21.832Z,55.98
2019-01-28T13:16:25.152Z,55.98
2019-01-28T13:17:28.584Z,55.85
2019-01-28T13:18:32.024Z,56.24
2019-01-28T13:19:35.301Z,56.14
2019-01-28T13:20:40.288Z,57.17
2019-01-28T13:21:43.857Z,57.17
2019-01-28T13:22:47.148Z,57.72
2019-01-28T13:23:50.508Z,57.53
2019-01-28T13:24:53.791Z,57.90
2019-01-28T13:25:57.082Z,57.34
2019-01-28T13:27:00.394Z,57.34
2019-01-28T13:28:03.764Z,57.60
2019-01-28T13:29:07.095Z,57.86
2019-01-28T13:30:16.538Z,57.86
2019-01-28T13:31:19.960Z,57.86
2019-01-28T13:32:23.287Z,57.56
2019-01-28T13:33:26.590Z,57.77
2019-01-28T13:34:29.950Z,57.79
2019-01-28T13:35:33.303Z,58.40
2019-01-28T13:36:36.967Z,58.40
2019-01-28T13:37:40.415Z,58.45
2019-01-28T13:38:43.771Z,58.83
2019-01-28T13:39:47.159Z,58.45